Terminal Aerodrome Forecast
Issued by NWS

Home | Current Version | Previous Version | Graphics & Text | Print | Product List | Glossary On
Versions: 1 2 3 4 5 6 7 8 9 10 11 12 13 14 15 16 17 18
000
FTUS43 KICT 160522
TAFCNU
TAF
KCNU 160522Z 1606/1706 12006KT P6SM SCT030 BKN035
     FM160900 13006KT 4SM BR BKN015
      TEMPO 1609/1613 2SM BR OVC008
     FM161600 15012KT P6SM SCT020 BKN035
     FM170100 09006KT P6SM SCT030=

USA.gov is the U.S. government's official web portal to all federal, state and local government web resources and services.